Time;durP1;ratioP1;P1;durP2;ratioP2;P2;SDS_P1;SDS_P2;PMS_P1;PMS_P2;Temp;Humidity;BMP_temperature;BMP_pressure;BME280_temperature;BME280_humidity;BME280_pressure;Samples;Min_cycle;Max_cycle;Signal;HPM_P1;HPM_P2
2023/09/19 00:00:46;;;;;;;2.67;1.50;;;16.70;99.90;;;;;;4860255;29;20194;-62
2023/09/19 00:03:15;;;;;;;3.30;1.58;;;16.80;99.90;;;;;;4864965;29;20562;-62
2023/09/19 00:05:44;;;;;;;2.70;1.60;;;16.80;99.90;;;;;;4858786;29;20593;-62
2023/09/19 00:08:13;;;;;;;4.70;1.88;;;16.80;99.90;;;;;;4864152;29;20721;-62
2023/09/19 00:10:41;;;;;;;1.92;1.30;;;16.80;99.90;;;;;;4846500;29;20297;-63
2023/09/19 00:13:12;;;;;;;3.63;1.80;;;16.90;99.90;;;;;;4881912;29;20682;-64
2023/09/19 00:15:42;;;;;;;4.40;1.60;;;16.90;99.90;;;;;;4854716;29;20237;-65
2023/09/19 00:18:09;;;;;;;3.22;2.17;;;16.80;99.90;;;;;;4875277;29;20437;-62
2023/09/19 00:20:38;;;;;;;4.38;1.85;;;16.90;99.90;;;;;;4855986;29;20194;-62
2023/09/19 00:23:08;;;;;;;4.55;1.83;;;16.90;99.90;;;;;;4879654;29;20219;-63
2023/09/19 00:25:38;;;;;;;9.70;2.63;;;16.70;99.90;;;;;;4897051;29;20276;-64
2023/09/19 00:28:07;;;;;;;2.90;1.90;;;16.70;99.90;;;;;;4878781;29;20228;-62
2023/09/19 00:30:34;;;;;;;3.63;1.80;;;16.80;99.90;;;;;;4886805;29;20205;-62
2023/09/19 00:33:05;;;;;;;5.82;1.60;;;16.80;99.90;;;;;;4866204;29;20335;-64
2023/09/19 00:35:33;;;;;;;6.75;1.77;;;16.70;99.90;;;;;;4865610;29;20284;-65
2023/09/19 00:38:01;;;;;;;6.07;1.67;;;16.70;99.90;;;;;;4891622;29;22349;-64
2023/09/19 00:40:29;;;;;;;5.13;1.65;;;16.70;99.90;;;;;;4881239;29;20212;-64
2023/09/19 00:43:02;;;;;;;3.17;1.70;;;16.50;99.90;;;;;;4869355;29;20687;-64
2023/09/19 00:45:29;;;;;;;7.30;1.75;;;16.50;99.90;;;;;;4878832;29;20205;-64
2023/09/19 00:47:57;;;;;;;4.18;1.70;;;16.40;99.90;;;;;;4878210;29;20197;-64
2023/09/19 00:50:27;;;;;;;2.45;1.42;;;16.30;99.90;;;;;;4896943;29;20523;-62
2023/09/19 00:52:57;;;;;;;10.32;3.05;;;16.20;99.90;;;;;;4875683;29;20285;-63
2023/09/19 00:55:25;;;;;;;3.80;1.60;;;16.30;99.90;;;;;;4884019;29;20666;-64
2023/09/19 00:57:56;;;;;;;4.10;1.35;;;16.30;99.90;;;;;;4892618;29;20214;-64
2023/09/19 01:00:24;;;;;;;4.28;1.63;;;16.10;99.90;;;;;;4873859;29;20201;-64
2023/09/19 01:02:51;;;;;;;5.28;1.55;;;16.10;99.90;;;;;;4865467;29;20659;-65
2023/09/19 01:05:19;;;;;;;3.05;1.75;;;16.10;99.90;;;;;;4888275;29;20280;-64
2023/09/19 01:07:48;;;;;;;6.55;1.77;;;16.00;99.90;;;;;;4879499;29;20197;-62
2023/09/19 01:10:20;;;;;;;4.25;1.50;;;16.00;99.90;;;;;;4863733;29;20202;-62
2023/09/19 01:13:08;;;;;;;6.53;1.33;;;16.00;99.90;;;;;;4874821;29;20206;-67
2023/09/19 01:15:42;;;;;;;3.17;1.58;;;16.00;99.90;;;;;;4877026;29;20237;-62
2023/09/19 01:18:15;;;;;;;4.43;2.10;;;16.00;99.90;;;;;;4884314;29;20200;-63
2023/09/19 01:20:53;;;;;;;3.65;1.30;;;16.00;99.90;;;;;;4860519;29;20201;-62
2023/09/19 01:23:45;;;;;;;3.80;1.70;;;16.00;99.90;;;;;;4878989;29;20786;-62
2023/09/19 01:26:44;;;;;;;2.28;1.50;;;16.10;99.90;;;;;;4845089;29;20611;-62
2023/09/19 01:29:32;;;;;;;4.57;1.95;;;16.20;99.90;;;;;;4878315;29;20216;-62
2023/09/19 01:32:03;;;;;;;6.05;1.83;;;16.30;99.90;;;;;;4876269;29;20317;-63
2023/09/19 01:35:05;;;;;;;4.85;1.40;;;16.20;99.90;;;;;;4877132;29;20658;-61
2023/09/19 01:37:32;;;;;;;6.13;1.50;;;16.30;99.90;;;;;;4881131;29;20716;-63
2023/09/19 01:40:04;;;;;;;6.60;1.60;;;16.30;99.90;;;;;;4872467;29;20204;-65
2023/09/19 01:42:44;;;;;;;9.93;2.55;;;16.20;99.90;;;;;;4862026;29;20656;-65
2023/09/19 01:45:24;;;;;;;3.42;1.67;;;16.20;99.90;;;;;;4854533;29;20661;-63
2023/09/19 01:47:56;;;;;;;8.55;1.67;;;16.20;99.90;;;;;;4857376;29;20236;-64
2023/09/19 01:50:36;;;;;;;7.15;2.40;;;16.20;99.90;;;;;;4876351;29;20199;-64
2023/09/19 01:53:24;;;;;;;7.10;1.85;;;16.20;99.90;;;;;;4854944;29;20193;-69
2023/09/19 01:55:53;;;;;;;3.63;1.60;;;16.20;99.90;;;;;;4884812;29;20251;-62
2023/09/19 01:58:44;;;;;;;7.13;2.03;;;16.20;99.90;;;;;;4871874;29;20727;-61
2023/09/19 02:05:12;;;;;;;6.93;1.50;;;16.10;99.90;;;;;;4875332;29;20284;-62
2023/09/19 02:07:40;;;;;;;8.40;1.95;;;16.20;99.90;;;;;;4871691;29;20659;-62
2023/09/19 02:10:10;;;;;;;5.10;1.65;;;16.20;99.90;;;;;;4874999;29;20197;-66
2023/09/19 02:12:38;;;;;;;8.00;1.85;;;16.10;99.90;;;;;;4864906;29;20692;-64
2023/09/19 02:15:07;;;;;;;2.42;1.60;;;16.10;99.90;;;;;;4869315;29;20241;-64
2023/09/19 02:17:34;;;;;;;4.88;1.40;;;16.10;99.90;;;;;;4878832;29;20213;-68
2023/09/19 02:20:03;;;;;;;7.63;1.85;;;15.90;99.90;;;;;;4875477;29;20642;-63
2023/09/19 02:22:30;;;;;;;7.57;2.10;;;15.80;99.90;;;;;;4878928;29;20469;-63
2023/09/19 02:25:00;;;;;;;10.38;2.20;;;15.70;99.90;;;;;;4873163;29;20228;-63
2023/09/19 02:27:27;;;;;;;5.43;1.58;;;15.60;99.90;;;;;;4872114;29;20623;-63
2023/09/19 02:29:55;;;;;;;7.20;1.83;;;15.50;99.90;;;;;;4872942;29;20202;-63
2023/09/19 02:32:23;;;;;;;6.57;1.90;;;15.40;99.90;;;;;;4875623;29;20714;-62
2023/09/19 02:34:51;;;;;;;5.80;1.85;;;15.40;99.90;;;;;;4875829;29;20213;-63
2023/09/19 02:37:19;;;;;;;7.97;2.03;;;15.40;99.90;;;;;;4877520;29;20210;-62
2023/09/19 02:39:46;;;;;;;7.70;1.80;;;15.40;99.90;;;;;;4892687;29;20197;-62
2023/09/19 02:42:13;;;;;;;8.77;1.63;;;15.40;99.90;;;;;;4872917;29;20201;-63
2023/09/19 02:44:40;;;;;;;6.03;2.15;;;15.30;99.90;;;;;;4861546;29;20370;-63
2023/09/19 02:47:09;;;;;;;4.70;1.53;;;15.20;99.90;;;;;;4870779;29;20214;-63
2023/09/19 02:49:36;;;;;;;4.10;1.53;;;15.10;99.90;;;;;;4853458;29;20213;-72
2023/09/19 02:52:04;;;;;;;4.63;1.77;;;15.10;99.90;;;;;;4859775;29;20206;-67
2023/09/19 02:54:31;;;;;;;3.50;2.17;;;15.00;99.90;;;;;;4872615;29;20221;-63
2023/09/19 02:56:58;;;;;;;15.43;2.13;;;15.00;99.90;;;;;;4873914;29;20220;-63
2023/09/19 02:59:25;;;;;;;8.10;1.60;;;15.10;99.90;;;;;;4873926;29;20697;-63
2023/09/19 03:01:54;;;;;;;5.50;1.67;;;15.00;99.90;;;;;;4873583;29;20214;-66
2023/09/19 03:04:21;;;;;;;4.03;1.20;;;15.00;99.90;;;;;;4879134;29;20201;-62
2023/09/19 03:06:51;;;;;;;7.40;1.67;;;15.00;99.90;;;;;;4886030;29;20202;-62
2023/09/19 03:09:19;;;;;;;8.37;2.00;;;15.00;99.90;;;;;;4871155;29;20205;-62
2023/09/19 03:11:47;;;;;;;7.53;1.70;;;15.00;99.90;;;;;;4888084;29;20554;-62
2023/09/19 03:14:15;;;;;;;5.73;1.57;;;15.00;99.90;;;;;;4872959;29;20288;-63
2023/09/19 03:16:44;;;;;;;8.53;1.83;;;15.00;99.90;;;;;;4870470;29;20229;-62
2023/09/19 03:19:15;;;;;;;11.50;2.00;;;14.90;99.90;;;;;;4888058;29;20241;-62
2023/09/19 03:21:43;;;;;;;5.60;1.37;;;14.90;99.90;;;;;;4864781;29;20230;-61
2023/09/19 03:24:11;;;;;;;5.40;1.60;;;14.90;99.90;;;;;;4872945;29;20201;-67
2023/09/19 03:26:39;;;;;;;5.03;1.60;;;15.00;99.90;;;;;;4896199;29;20205;-64
2023/09/19 03:29:06;;;;;;;6.85;1.83;;;15.00;99.90;;;;;;4885662;29;20193;-81
2023/09/19 03:31:36;;;;;;;6.37;1.40;;;15.00;99.90;;;;;;4874415;29;20219;-64
2023/09/19 03:34:06;;;;;;;6.28;2.00;;;14.90;99.90;;;;;;4888109;29;20213;-62
2023/09/19 03:36:35;;;;;;;7.23;2.17;;;14.90;99.90;;;;;;4869968;29;20216;-65
2023/09/19 03:39:04;;;;;;;7.43;2.03;;;14.90;99.90;;;;;;4887712;29;20190;-63
2023/09/19 03:41:33;;;;;;;6.37;1.50;;;14.90;99.90;;;;;;4872733;29;20216;-63
2023/09/19 03:44:00;;;;;;;4.50;1.73;;;15.00;99.90;;;;;;4850507;29;20210;-63
2023/09/19 03:46:28;;;;;;;6.77;1.70;;;15.00;99.90;;;;;;4881294;29;20197;-63
2023/09/19 03:48:55;;;;;;;11.07;1.70;;;14.90;99.90;;;;;;4882359;29;20202;-63
2023/09/19 03:51:22;;;;;;;6.63;1.70;;;15.00;99.90;;;;;;4885940;29;20209;-62
2023/09/19 03:53:50;;;;;;;4.23;1.63;;;15.00;99.90;;;;;;4879180;29;20640;-65
2023/09/19 03:56:17;;;;;;;4.57;2.33;;;14.90;99.90;;;;;;4894098;29;20208;-62
2023/09/19 03:58:44;;;;;;;4.87;1.43;;;15.00;99.90;;;;;;4879010;29;20197;-62
2023/09/19 04:01:13;;;;;;;8.77;1.90;;;14.90;99.90;;;;;;4868542;29;20318;-62
2023/09/19 04:03:47;;;;;;;3.47;1.47;;;14.90;99.90;;;;;;4886890;29;20195;-64
2023/09/19 04:06:14;;;;;;;5.13;1.70;;;14.90;99.90;;;;;;4889644;29;20225;-62
2023/09/19 04:08:42;;;;;;;4.57;1.47;;;14.80;99.90;;;;;;4884557;29;20304;-64
2023/09/19 04:11:10;;;;;;;4.37;1.57;;;14.80;99.90;;;;;;4865530;29;20221;-64
2023/09/19 04:13:37;;;;;;;4.60;1.30;;;14.80;99.90;;;;;;4877119;29;20233;-62
2023/09/19 04:16:04;;;;;;;5.43;2.20;;;14.90;99.90;;;;;;4878643;29;20666;-67
2023/09/19 04:18:33;;;;;;;6.70;1.93;;;14.80;99.90;;;;;;4881229;29;20249;-64
2023/09/19 04:21:03;;;;;;;5.33;1.63;;;14.80;99.90;;;;;;4876021;29;20204;-62
2023/09/19 04:23:31;;;;;;;7.93;1.93;;;14.70;99.90;;;;;;4878194;29;20280;-65
2023/09/19 04:25:58;;;;;;;11.13;2.23;;;14.80;99.90;;;;;;4880377;29;20685;-62
2023/09/19 04:28:27;;;;;;;9.97;2.37;;;14.70;99.90;;;;;;4876476;29;20544;-61
2023/09/19 04:30:55;;;;;;;6.07;1.90;;;14.70;99.90;;;;;;4887904;29;20202;-64
2023/09/19 04:33:22;;;;;;;5.30;2.50;;;14.70;99.90;;;;;;4878846;29;20252;-63
2023/09/19 04:35:50;;;;;;;4.53;1.77;;;14.70;99.90;;;;;;4876075;29;20205;-67
2023/09/19 04:38:19;;;;;;;4.10;1.70;;;14.80;99.90;;;;;;4872697;29;20233;-67
2023/09/19 04:40:47;;;;;;;5.87;2.90;;;14.70;99.90;;;;;;4877215;29;20228;-66
2023/09/19 04:43:15;;;;;;;4.53;1.57;;;14.70;99.90;;;;;;4876995;29;20648;-70
2023/09/19 04:45:42;;;;;;;12.37;1.77;;;14.60;99.90;;;;;;4877158;29;20201;-66
2023/09/19 04:48:10;;;;;;;5.00;2.00;;;14.60;99.90;;;;;;4878854;29;20206;-66
2023/09/19 04:50:38;;;;;;;7.17;1.37;;;14.50;99.90;;;;;;4878572;29;20198;-67
2023/09/19 04:53:06;;;;;;;12.07;2.07;;;14.50;99.90;;;;;;4880114;29;20198;-65
2023/09/19 04:55:33;;;;;;;7.63;2.20;;;14.50;99.90;;;;;;4878071;29;20201;-67
2023/09/19 04:58:00;;;;;;;6.43;1.90;;;14.40;99.90;;;;;;4882205;29;20669;-65
2023/09/19 05:00:30;;;;;;;6.23;1.70;;;14.40;99.90;;;;;;4877080;29;20723;-65
2023/09/19 05:02:57;;;;;;;9.87;2.70;;;14.50;99.90;;;;;;4880046;29;20197;-62
2023/09/19 05:05:25;;;;;;;5.53;1.93;;;14.40;99.90;;;;;;4868217;29;20197;-62
2023/09/19 05:07:56;;;;;;;9.77;1.90;;;14.40;99.90;;;;;;4878046;29;20201;-62
2023/09/19 05:10:23;;;;;;;10.00;1.83;;;14.40;99.90;;;;;;4880469;29;20307;-63
2023/09/19 05:12:53;;;;;;;4.47;1.80;;;14.40;99.90;;;;;;4876532;29;20658;-63
2023/09/19 05:15:21;;;;;;;4.53;2.27;;;14.50;99.90;;;;;;4875211;29;20298;-65
2023/09/19 05:17:54;;;;;;;6.87;1.57;;;14.40;99.90;;;;;;4878597;29;20216;-66
2023/09/19 05:20:26;;;;;;;3.27;1.40;;;14.40;99.90;;;;;;4859129;29;21056;-70
2023/09/19 05:23:05;;;;;;;2.80;1.67;;;14.40;99.90;;;;;;4886906;29;20264;-63
2023/09/19 05:25:32;;;;;;;5.10;1.67;;;14.40;99.90;;;;;;4873622;29;20560;-62
2023/09/19 05:28:03;;;;;;;5.63;1.50;;;14.40;99.90;;;;;;4864386;29;20226;-60
2023/09/19 05:30:35;;;;;;;6.33;1.53;;;14.30;99.90;;;;;;4856073;29;20212;-63
2023/09/19 05:33:04;;;;;;;6.33;1.70;;;14.40;99.90;;;;;;4877319;29;20236;-62
2023/09/19 05:35:32;;;;;;;7.53;2.47;;;14.40;99.90;;;;;;4877334;29;20735;-63
2023/09/19 05:37:59;;;;;;;6.30;2.10;;;14.40;99.90;;;;;;4889798;29;20216;-62
2023/09/19 05:40:27;;;;;;;7.67;1.83;;;14.50;99.90;;;;;;4879516;29;20202;-62
2023/09/19 05:42:54;;;;;;;9.87;1.90;;;14.50;99.90;;;;;;4872022;29;20197;-65
2023/09/19 05:45:24;;;;;;;5.77;2.13;;;14.50;99.90;;;;;;4876833;29;20244;-66
2023/09/19 05:47:55;;;;;;;6.20;1.47;;;14.50;99.90;;;;;;4881916;29;20193;-65
2023/09/19 05:50:24;;;;;;;4.50;1.40;;;14.60;99.90;;;;;;4859865;29;20665;-62
2023/09/19 05:52:52;;;;;;;6.30;2.47;;;14.60;99.90;;;;;;4874623;29;20201;-62
2023/09/19 05:55:20;;;;;;;7.07;1.80;;;14.70;99.90;;;;;;4877458;29;20230;-62
2023/09/19 05:57:51;;;;;;;4.50;1.70;;;14.70;99.90;;;;;;4873210;29;20217;-62
2023/09/19 06:00:22;;;;;;;5.60;1.47;;;14.80;99.90;;;;;;4878715;29;20202;-62
2023/09/19 06:02:57;;;;;;;9.93;2.17;;;14.80;99.90;;;;;;4863513;29;20642;-68
2023/09/19 06:05:26;;;;;;;4.73;1.77;;;14.80;99.90;;;;;;4875256;29;20197;-71
2023/09/19 06:07:54;;;;;;;4.43;1.70;;;14.90;99.90;;;;;;4877771;29;20205;-61
2023/09/19 06:10:22;;;;;;;8.83;2.50;;;14.90;99.90;;;;;;4869029;29;20197;-62
2023/09/19 06:12:49;;;;;;;8.70;2.00;;;14.90;99.90;;;;;;4866887;29;20741;-61
2023/09/19 06:15:18;;;;;;;9.52;1.83;;;14.90;99.90;;;;;;4869270;29;20643;-61
2023/09/19 06:17:51;;;;;;;5.73;1.93;;;15.00;99.90;;;;;;4875769;29;20209;-60
2023/09/19 06:20:19;;;;;;;8.33;2.00;;;15.00;99.90;;;;;;4866452;29;20615;-60
2023/09/19 06:22:47;;;;;;;5.07;1.57;;;15.00;99.90;;;;;;4870082;29;20193;-61
2023/09/19 06:25:21;;;;;;;5.78;1.92;;;15.00;99.90;;;;;;4866631;29;20554;-61
2023/09/19 06:27:53;;;;;;;7.57;1.95;;;15.10;99.90;;;;;;4881878;29;20208;-73
2023/09/19 06:30:23;;;;;;;5.85;1.88;;;15.10;99.90;;;;;;4875590;29;20213;-64
2023/09/19 06:32:56;;;;;;;7.87;1.80;;;15.10;99.90;;;;;;4864017;29;20217;-63
2023/09/19 06:35:23;;;;;;;2.47;1.60;;;15.20;99.90;;;;;;4876349;29;20202;-61
2023/09/19 06:37:51;;;;;;;3.97;1.80;;;15.30;99.90;;;;;;4877898;29;20961;-61
2023/09/19 06:40:19;;;;;;;3.20;1.70;;;15.40;99.90;;;;;;4874818;29;20691;-64
2023/09/19 06:42:50;;;;;;;6.03;2.20;;;15.40;99.90;;;;;;4855258;29;20201;-61
2023/09/19 06:45:21;;;;;;;6.57;2.05;;;15.30;99.90;;;;;;4873997;29;20258;-61
2023/09/19 06:47:50;;;;;;;3.58;1.63;;;15.40;99.90;;;;;;4873951;29;20268;-65
2023/09/19 06:50:21;;;;;;;6.28;1.50;;;15.50;99.90;;;;;;4866691;29;20201;-60
2023/09/19 06:52:54;;;;;;;4.35;1.50;;;15.60;99.90;;;;;;4871312;29;20565;-74
2023/09/19 06:55:27;;;;;;;5.28;1.75;;;15.70;99.90;;;;;;4871599;29;20335;-61
2023/09/19 06:57:55;;;;;;;6.05;1.42;;;15.70;99.90;;;;;;4876810;29;20245;-61
2023/09/19 07:00:23;;;;;;;7.57;1.58;;;15.80;99.90;;;;;;4874161;29;21155;-61
2023/09/19 07:03:04;;;;;;;3.28;1.60;;;15.80;99.90;;;;;;4881569;29;20288;-62
2023/09/19 07:05:36;;;;;;;5.60;1.80;;;15.90;99.90;;;;;;4869238;29;20200;-61
2023/09/19 07:08:07;;;;;;;6.87;2.27;;;15.90;99.90;;;;;;4870280;29;20197;-63
2023/09/19 07:10:34;;;;;;;6.07;1.60;;;15.80;99.90;;;;;;4869161;29;20205;-61
2023/09/19 07:13:03;;;;;;;4.53;1.52;;;15.90;99.90;;;;;;4872192;29;20218;-63
2023/09/19 07:15:38;;;;;;;9.05;1.90;;;16.00;99.90;;;;;;4872742;29;20846;-69
2023/09/19 07:18:10;;;;;;;5.72;1.77;;;16.10;99.90;;;;;;4872426;29;20599;-62
2023/09/19 07:20:38;;;;;;;4.80;1.65;;;16.10;99.90;;;;;;4867238;29;20209;-61
2023/09/19 07:23:06;;;;;;;3.90;1.70;;;16.10;99.90;;;;;;4872625;29;20197;-61
2023/09/19 07:25:33;;;;;;;7.13;1.65;;;16.20;99.90;;;;;;4872848;29;20206;-62
2023/09/19 07:28:00;;;;;;;7.03;1.85;;;16.30;99.90;;;;;;4873496;29;20678;-61
2023/09/19 07:30:28;;;;;;;5.53;1.50;;;16.50;99.90;;;;;;4871150;29;20339;-74
2023/09/19 07:32:56;;;;;;;6.95;1.90;;;16.70;99.90;;;;;;4883123;29;20263;-61
2023/09/19 07:35:23;;;;;;;4.25;1.75;;;16.80;99.90;;;;;;4871737;29;20300;-67
2023/09/19 07:37:51;;;;;;;5.03;1.55;;;16.70;99.90;;;;;;4874623;29;20336;-62
2023/09/19 07:40:20;;;;;;;6.93;2.08;;;16.80;99.90;;;;;;4873169;29;20198;-61
2023/09/19 07:42:50;;;;;;;3.22;1.73;;;16.80;99.90;;;;;;4873892;29;20241;-66
2023/09/19 07:45:17;;;;;;;4.80;1.70;;;17.10;99.90;;;;;;4875018;29;20201;-64
2023/09/19 07:47:48;;;;;;;3.70;2.00;;;17.30;99.90;;;;;;4876547;29;20203;-64
2023/09/19 07:50:18;;;;;;;7.65;2.08;;;17.30;99.90;;;;;;4871787;29;20205;-65
2023/09/19 07:52:47;;;;;;;7.65;1.67;;;17.70;99.90;;;;;;4875539;29;20284;-70
2023/09/19 07:55:19;;;;;;;4.47;1.85;;;17.60;99.90;;;;;;4875005;29;20193;-64
2023/09/19 07:57:46;;;;;;;4.13;1.95;;;17.80;99.90;;;;;;4874803;29;20700;-63
2023/09/19 08:00:14;;;;;;;8.10;1.92;;;18.20;99.90;;;;;;4868536;29;20206;-68
2023/09/19 08:02:41;;;;;;;8.95;1.85;;;18.40;99.90;;;;;;4874096;29;20273;-63
2023/09/19 08:05:11;;;;;;;7.47;1.80;;;18.70;99.90;;;;;;4878223;29;20270;-63
2023/09/19 08:07:41;;;;;;;5.72;2.35;;;18.50;99.90;;;;;;4871478;29;20341;-61
2023/09/19 08:10:15;;;;;;;3.63;2.00;;;18.80;99.90;;;;;;4873065;29;20716;-62
2023/09/19 08:12:46;;;;;;;8.30;2.38;;;19.00;99.90;;;;;;4872558;29;20754;-62
2023/09/19 08:15:22;;;;;;;5.22;1.92;;;19.10;99.90;;;;;;4874002;29;20237;-62
2023/09/19 08:17:50;;;;;;;9.93;2.47;;;18.70;99.90;;;;;;4880546;29;20217;-62
2023/09/19 08:20:18;;;;;;;3.95;1.60;;;19.00;99.90;;;;;;4871519;29;20330;-61
2023/09/19 08:22:52;;;;;;;4.70;1.70;;;19.00;99.90;;;;;;4880794;29;20546;-61
2023/09/19 08:25:19;;;;;;;6.55;2.13;;;19.10;99.90;;;;;;4891696;29;20279;-61
2023/09/19 08:27:48;;;;;;;6.00;1.70;;;19.30;99.90;;;;;;4878240;29;20521;-61
2023/09/19 08:30:18;;;;;;;6.07;2.00;;;19.80;99.90;;;;;;4868064;29;20224;-67
2023/09/19 08:32:45;;;;;;;5.75;2.28;;;19.80;99.90;;;;;;4889960;29;20720;-63
2023/09/19 08:35:14;;;;;;;9.13;2.40;;;19.90;99.90;;;;;;4895542;29;20582;-62
2023/09/19 08:37:45;;;;;;;5.28;1.85;;;20.30;99.90;;;;;;4870431;29;20198;-63
2023/09/19 08:40:12;;;;;;;3.92;1.95;;;20.20;99.90;;;;;;4896535;29;20257;-62
2023/09/19 08:42:56;;;;;;;5.65;1.75;;;21.10;99.90;;;;;;4882765;29;20277;-64
2023/09/19 08:45:27;;;;;;;12.77;2.35;;;20.50;99.90;;;;;;4879380;29;20673;-71
2023/09/19 08:48:22;;;;;;;5.45;2.05;;;19.50;99.90;;;;;;4878450;29;20232;-63
2023/09/19 08:50:55;;;;;;;6.68;2.00;;;20.20;99.90;;;;;;4886854;29;20281;-62
2023/09/19 08:53:41;;;;;;;5.20;2.78;;;20.30;99.90;;;;;;4887262;29;20205;-61
2023/09/19 08:56:13;;;;;;;5.53;1.88;;;20.80;99.90;;;;;;4884326;29;20689;-65
2023/09/19 08:58:47;;;;;;;4.85;2.97;;;19.70;99.90;;;;;;4889676;29;20836;-71
2023/09/19 09:01:24;;;;;;;7.70;2.67;;;20.10;99.90;;;;;;4873153;29;20213;-64
2023/09/19 09:03:53;;;;;;;7.28;2.53;;;20.60;99.90;;;;;;4882596;29;20196;-65
2023/09/19 09:06:21;;;;;;;5.38;2.13;;;20.20;99.90;;;;;;4879751;29;20221;-68
2023/09/19 09:08:53;;;;;;;6.57;2.40;;;20.60;99.90;;;;;;4896266;29;20200;-71
2023/09/19 09:11:24;;;;;;;7.97;2.25;;;20.30;99.90;;;;;;4860148;29;20258;-63
2023/09/19 09:13:51;;;;;;;10.20;2.47;;;19.80;99.90;;;;;;4889126;29;20733;-63
2023/09/19 09:16:19;;;;;;;4.63;2.33;;;19.80;99.90;;;;;;4883939;29;20261;-64
2023/09/19 09:18:52;;;;;;;6.28;2.47;;;20.80;99.90;;;;;;4885004;29;20237;-62
2023/09/19 09:21:26;;;;;;;9.30;2.35;;;21.10;99.90;;;;;;4896541;29;20196;-63
2023/09/19 09:23:54;;;;;;;5.72;2.08;;;20.90;99.90;;;;;;4883564;29;20228;-69
2023/09/19 09:26:39;;;;;;;9.70;2.30;;;20.70;99.90;;;;;;4880816;29;20237;-67
2023/09/19 09:29:05;;;;;;;11.73;2.40;;;20.30;99.90;;;;;;4895884;29;20227;-64
2023/09/19 09:31:33;;;;;;;7.82;2.58;;;21.30;99.90;;;;;;4879032;29;20553;-65
2023/09/19 09:34:00;;;;;;;7.10;2.15;;;21.90;99.90;;;;;;4869398;29;20224;-64
2023/09/19 09:36:43;;;;;;;7.72;2.28;;;22.20;99.90;;;;;;4884076;29;20537;-64
2023/09/19 09:39:24;;;;;;;5.85;2.30;;;23.00;99.90;;;;;;4874760;29;20213;-64
2023/09/19 09:41:52;;;;;;;4.75;2.28;;;22.90;99.90;;;;;;4883312;29;20691;-66
2023/09/19 09:44:19;;;;;;;5.50;2.35;;;22.90;99.90;;;;;;4895202;29;20240;-67
2023/09/19 09:52:07;;;;;;;8.07;2.40;;;22.90;99.90;;;;;;4880392;29;20745;-64
2023/09/19 09:54:41;;;;;;;6.78;2.53;;;24.60;99.90;;;;;;4889511;29;20201;-64
2023/09/19 09:57:20;;;;;;;4.28;1.92;;;24.70;99.90;;;;;;4872175;29;20205;-64
2023/09/19 09:59:59;;;;;;;3.67;2.20;;;22.20;99.90;;;;;;4892920;29;20212;-64
2023/09/19 10:02:29;;;;;;;3.75;2.03;;;23.20;99.90;;;;;;4894495;29;20243;-64
2023/09/19 10:07:49;;;;;;;4.95;2.45;;;22.40;99.90;;;;;;4884153;29;20531;-64
2023/09/19 10:13:15;;;;;;;7.32;2.47;;;24.10;99.90;;;;;;4889263;29;20201;-64
2023/09/19 10:15:50;;;;;;;8.82;2.95;;;25.00;99.90;;;;;;4845270;29;20238;-65
2023/09/19 10:18:23;;;;;;;5.78;2.20;;;26.60;99.90;;;;;;4855143;29;20351;-64
2023/09/19 10:20:50;;;;;;;3.42;2.60;;;25.50;99.90;;;;;;4857843;29;20216;-64
2023/09/19 10:23:23;;;;;;;5.15;2.15;;;25.30;99.90;;;;;;4856798;29;20623;-64
2023/09/19 10:25:52;;;;;;;11.75;3.25;;;25.40;99.90;;;;;;4850573;29;20206;-64
2023/09/19 10:28:24;;;;;;;3.78;2.28;;;26.20;99.90;;;;;;4852494;29;20210;-64
2023/09/19 10:30:52;;;;;;;4.90;2.33;;;28.10;99.90;;;;;;4848424;29;20230;-64
2023/09/19 10:33:22;;;;;;;8.00;2.30;;;28.40;99.90;;;;;;4855535;29;20629;-65
2023/09/19 10:35:51;;;;;;;5.45;2.20;;;26.70;99.90;;;;;;4855593;29;20198;-65
2023/09/19 10:38:22;;;;;;;3.63;2.60;;;27.30;99.90;;;;;;4858617;29;20225;-68
2023/09/19 10:40:51;;;;;;;8.60;3.13;;;28.60;99.90;;;;;;4859428;29;20697;-73
2023/09/19 10:43:21;;;;;;;9.88;2.65;;;25.60;99.90;;;;;;4845328;29;20199;-66
2023/09/19 10:45:53;;;;;;;4.20;2.55;;;24.90;99.90;;;;;;4853548;29;20208;-70
2023/09/19 10:48:25;;;;;;;6.38;2.58;;;25.70;99.90;;;;;;4859256;29;20678;-67
2023/09/19 10:51:16;;;;;;;4.00;2.63;;;24.60;99.90;;;;;;4856160;29;20209;-65
2023/09/19 10:54:00;;;;;;;4.82;2.88;;;23.60;99.90;;;;;;4843604;29;20202;-73
2023/09/19 10:56:32;;;;;;;4.78;2.63;;;22.50;99.90;;;;;;4855856;29;20544;-68
2023/09/19 10:59:12;;;;;;;5.18;2.47;;;22.40;99.90;;;;;;4844640;29;20229;-76
2023/09/19 11:01:44;;;;;;;4.57;2.38;;;21.90;99.90;;;;;;4836911;29;20207;-74
2023/09/19 11:04:31;;;;;;;5.90;2.42;;;22.10;99.90;;;;;;4855252;29;20646;-66
2023/09/19 11:07:10;;;;;;;3.67;2.22;;;22.60;99.90;;;;;;4841101;29;20206;-64
2023/09/19 11:09:45;;;;;;;6.78;2.55;;;23.60;99.90;;;;;;4861018;29;20282;-65
2023/09/19 11:12:40;;;;;;;3.95;2.50;;;23.20;99.90;;;;;;4864459;29;20241;-64
2023/09/19 11:15:10;;;;;;;2.63;2.20;;;23.30;99.90;;;;;;4850246;29;20325;-63
2023/09/19 11:17:52;;;;;;;5.28;2.30;;;23.10;99.90;;;;;;4856157;29;20705;-63
2023/09/19 11:20:24;;;;;;;7.43;2.80;;;24.70;99.90;;;;;;4858351;29;20214;-63
2023/09/19 11:22:57;;;;;;;6.00;2.53;;;24.80;99.90;;;;;;4856443;29;20664;-63
2023/09/19 11:25:30;;;;;;;11.18;3.10;;;24.20;99.90;;;;;;4835726;29;20215;-63
2023/09/19 11:28:05;;;;;;;4.93;2.75;;;24.20;99.90;;;;;;4839639;29;20912;-64
2023/09/19 11:30:38;;;;;;;5.78;2.80;;;24.00;99.90;;;;;;4853845;29;20202;-63
2023/09/19 11:33:31;;;;;;;7.05;3.10;;;23.20;99.90;;;;;;4855729;29;20384;-64
2023/09/19 11:36:24;;;;;;;7.88;2.80;;;23.90;99.90;;;;;;4853242;29;20671;-64
2023/09/19 11:38:52;;;;;;;5.85;2.25;;;24.40;99.90;;;;;;4857287;29;20895;-63
2023/09/19 11:43:50;;;;;;;6.22;2.85;;;24.30;99.90;;;;;;4855187;29;20206;-63
2023/09/19 11:46:21;;;;;;;3.72;2.50;;;24.40;99.90;;;;;;4854146;29;20755;-63
2023/09/19 11:48:49;;;;;;;4.70;2.70;;;26.20;99.90;;;;;;4858692;29;20250;-64
2023/09/19 11:51:19;;;;;;;3.53;2.15;;;26.40;99.90;;;;;;4855060;29;20206;-64
2023/09/19 11:53:48;;;;;;;9.35;2.35;;;24.80;99.90;;;;;;4852314;29;20278;-63
2023/09/19 11:56:20;;;;;;;4.85;2.83;;;24.20;99.90;;;;;;4855766;29;20687;-63
2023/09/19 11:58:55;;;;;;;7.75;2.60;;;23.90;99.90;;;;;;4859412;29;20217;-63
2023/09/19 12:01:34;;;;;;;6.85;2.90;;;23.40;99.90;;;;;;4855183;29;20225;-64
2023/09/19 12:04:04;;;;;;;5.47;2.50;;;23.10;99.90;;;;;;4855714;29;20197;-63
2023/09/19 12:06:32;;;;;;;5.68;2.72;;;23.30;99.90;;;;;;4856025;29;20225;-67
2023/09/19 12:09:06;;;;;;;3.83;2.38;;;23.10;99.90;;;;;;4865850;29;20201;-63
2023/09/19 12:11:40;;;;;;;5.15;2.70;;;24.20;99.90;;;;;;4857165;29;20757;-66
2023/09/19 12:14:08;;;;;;;6.10;2.50;;;24.80;99.90;;;;;;4865458;29;20738;-62
2023/09/19 12:16:36;;;;;;;4.95;2.60;;;24.00;99.90;;;;;;4875490;29;20615;-63
2023/09/19 12:19:23;;;;;;;5.20;2.42;;;23.30;99.90;;;;;;4879507;29;20691;-63
2023/09/19 12:21:59;;;;;;;6.00;2.60;;;23.40;99.90;;;;;;4874649;29;20627;-63
2023/09/19 12:24:29;;;;;;;3.22;2.35;;;23.40;99.90;;;;;;4879139;29;20196;-63
2023/09/19 12:27:05;;;;;;;7.60;2.40;;;23.40;99.90;;;;;;4867186;29;20607;-64
2023/09/19 12:29:48;;;;;;;3.80;2.17;;;23.30;99.90;;;;;;4884361;29;20252;-63
2023/09/19 12:32:20;;;;;;;4.95;2.72;;;22.60;99.90;;;;;;4857881;29;21229;-63
2023/09/19 12:34:52;;;;;;;4.03;2.30;;;23.10;99.90;;;;;;4876433;29;20284;-63
2023/09/19 12:37:27;;;;;;;4.32;2.42;;;23.30;99.90;;;;;;4869958;29;20250;-65
2023/09/19 12:40:14;;;;;;;5.50;2.08;;;22.90;99.90;;;;;;4881294;29;20582;-64
2023/09/19 12:42:42;;;;;;;8.88;3.00;;;22.70;99.90;;;;;;4878501;29;20255;-64
2023/09/19 12:45:10;;;;;;;3.03;2.30;;;22.10;99.90;;;;;;4877817;29;20570;-63
2023/09/19 12:47:37;;;;;;;5.95;2.45;;;22.00;99.90;;;;;;4886717;29;20270;-63
2023/09/19 12:50:29;;;;;;;4.07;2.20;;;22.20;99.90;;;;;;4864641;29;20234;-63
2023/09/19 12:53:00;;;;;;;4.57;2.40;;;22.10;99.90;;;;;;4877305;29;20212;-64
2023/09/19 12:55:36;;;;;;;5.95;2.25;;;22.40;99.90;;;;;;4877840;29;20209;-63
2023/09/19 12:58:09;;;;;;;3.00;2.00;;;22.40;99.90;;;;;;4877819;29;20288;-63
2023/09/19 13:00:39;;;;;;;4.03;2.38;;;22.10;99.90;;;;;;4893517;29;20304;-63
2023/09/19 13:03:15;;;;;;;6.18;2.60;;;21.50;99.90;;;;;;4897215;29;20189;-63
2023/09/19 13:05:47;;;;;;;6.95;2.83;;;21.60;99.90;;;;;;4879798;29;20257;-63
2023/09/19 13:08:20;;;;;;;3.67;2.70;;;21.90;99.90;;;;;;4878645;29;20714;-63
2023/09/19 13:11:15;;;;;;;3.22;2.60;;;22.00;99.90;;;;;;4849764;29;20659;-63
2023/09/19 13:13:49;;;;;;;4.25;2.65;;;21.80;99.90;;;;;;4877118;29;20713;-63
2023/09/19 13:16:22;;;;;;;6.00;3.35;;;21.90;99.90;;;;;;4867459;29;20691;-63
2023/09/19 13:18:56;;;;;;;6.43;2.90;;;22.00;99.90;;;;;;4875793;29;20726;-71
2023/09/19 13:21:37;;;;;;;3.83;2.35;;;22.00;99.90;;;;;;4878327;29;20197;-65
2023/09/19 13:24:27;;;;;;;9.05;2.60;;;22.00;99.90;;;;;;4864267;29;20798;-63